sensor_id;sensor_type;location;lat;lon;timestamp;P1;durP1;ratioP1;P2;durP2;ratioP2
30307;SDS011;17114;52.314;8.910;2022-07-17T00:00:23;7.68;;;1.92;;
30307;SDS011;17114;52.314;8.910;2022-07-17T00:02:50;7.70;;;2.08;;
30307;SDS011;17114;52.314;8.910;2022-07-17T00:05:17;8.82;;;2.20;;
30307;SDS011;17114;52.314;8.910;2022-07-17T00:07:45;7.05;;;2.28;;
30307;SDS011;17114;52.314;8.910;2022-07-17T00:10:14;7.10;;;2.80;;
30307;SDS011;17114;52.314;8.910;2022-07-17T00:12:42;7.82;;;1.80;;
30307;SDS011;17114;52.314;8.910;2022-07-17T00:15:10;4.30;;;2.30;;
30307;SDS011;17114;52.314;8.910;2022-07-17T00:17:37;6.75;;;2.50;;
30307;SDS011;17114;52.314;8.910;2022-07-17T00:20:04;5.85;;;2.22;;
30307;SDS011;17114;52.314;8.910;2022-07-17T00:22:33;9.27;;;2.55;;
30307;SDS011;17114;52.314;8.910;2022-07-17T00:25:00;6.10;;;2.13;;
30307;SDS011;17114;52.314;8.910;2022-07-17T00:27:29;11.93;;;2.95;;
30307;SDS011;17114;52.314;8.910;2022-07-17T00:29:56;6.55;;;2.45;;
30307;SDS011;17114;52.314;8.910;2022-07-17T00:32:23;8.60;;;2.50;;
30307;SDS011;17114;52.314;8.910;2022-07-17T00:34:50;6.53;;;2.25;;
30307;SDS011;17114;52.314;8.910;2022-07-17T00:37:17;6.25;;;2.42;;
30307;SDS011;17114;52.314;8.910;2022-07-17T00:39:45;6.82;;;2.90;;
30307;SDS011;17114;52.314;8.910;2022-07-17T00:42:12;5.68;;;1.95;;
30307;SDS011;17114;52.314;8.910;2022-07-17T00:44:40;4.03;;;1.90;;
30307;SDS011;17114;52.314;8.910;2022-07-17T00:47:13;5.97;;;1.98;;
30307;SDS011;17114;52.314;8.910;2022-07-17T00:49:42;4.03;;;2.53;;
30307;SDS011;17114;52.314;8.910;2022-07-17T00:52:10;6.45;;;2.20;;
30307;SDS011;17114;52.314;8.910;2022-07-17T00:54:39;7.90;;;1.88;;
30307;SDS011;17114;52.314;8.910;2022-07-17T00:57:09;5.45;;;2.00;;
30307;SDS011;17114;52.314;8.910;2022-07-17T00:59:38;8.30;;;2.05;;
30307;SDS011;17114;52.314;8.910;2022-07-17T01:02:07;5.25;;;1.98;;
30307;SDS011;17114;52.314;8.910;2022-07-17T01:04:36;10.20;;;2.40;;
30307;SDS011;17114;52.314;8.910;2022-07-17T01:07:04;4.85;;;1.85;;
30307;SDS011;17114;52.314;8.910;2022-07-17T01:09:33;5.68;;;1.92;;
30307;SDS011;17114;52.314;8.910;2022-07-17T01:12:00;4.53;;;1.98;;
30307;SDS011;17114;52.314;8.910;2022-07-17T01:14:27;6.07;;;2.50;;
30307;SDS011;17114;52.314;8.910;2022-07-17T01:16:55;3.58;;;1.83;;
30307;SDS011;17114;52.314;8.910;2022-07-17T01:19:22;6.32;;;2.10;;
30307;SDS011;17114;52.314;8.910;2022-07-17T01:21:49;6.63;;;2.35;;
30307;SDS011;17114;52.314;8.910;2022-07-17T01:24:17;6.90;;;1.90;;
30307;SDS011;17114;52.314;8.910;2022-07-17T01:26:47;6.55;;;2.10;;
30307;SDS011;17114;52.314;8.910;2022-07-17T01:29:15;6.38;;;2.53;;
30307;SDS011;17114;52.314;8.910;2022-07-17T01:31:43;8.45;;;2.30;;
30307;SDS011;17114;52.314;8.910;2022-07-17T01:34:11;8.98;;;2.17;;
30307;SDS011;17114;52.314;8.910;2022-07-17T01:36:42;5.35;;;2.17;;
30307;SDS011;17114;52.314;8.910;2022-07-17T01:39:09;5.57;;;1.98;;
30307;SDS011;17114;52.314;8.910;2022-07-17T01:41:36;9.73;;;2.10;;
30307;SDS011;17114;52.314;8.910;2022-07-17T01:44:03;4.68;;;1.85;;
30307;SDS011;17114;52.314;8.910;2022-07-17T01:46:32;7.65;;;2.05;;
30307;SDS011;17114;52.314;8.910;2022-07-17T01:48:59;4.50;;;2.08;;
30307;SDS011;17114;52.314;8.910;2022-07-17T01:51:29;9.25;;;2.53;;
30307;SDS011;17114;52.314;8.910;2022-07-17T01:53:57;8.48;;;2.13;;
30307;SDS011;17114;52.314;8.910;2022-07-17T01:56:25;7.22;;;2.00;;
30307;SDS011;17114;52.314;8.910;2022-07-17T01:58:52;5.05;;;2.20;;
30307;SDS011;17114;52.314;8.910;2022-07-17T02:01:19;7.63;;;1.90;;
30307;SDS011;17114;52.314;8.910;2022-07-17T02:03:46;7.22;;;2.10;;
30307;SDS011;17114;52.314;8.910;2022-07-17T02:06:13;3.55;;;1.90;;
30307;SDS011;17114;52.314;8.910;2022-07-17T02:08:40;5.18;;;2.25;;
30307;SDS011;17114;52.314;8.910;2022-07-17T02:11:07;6.93;;;2.33;;
30307;SDS011;17114;52.314;8.910;2022-07-17T02:13:34;8.73;;;2.50;;
30307;SDS011;17114;52.314;8.910;2022-07-17T02:16:02;5.32;;;2.20;;
30307;SDS011;17114;52.314;8.910;2022-07-17T02:18:29;7.18;;;2.30;;
30307;SDS011;17114;52.314;8.910;2022-07-17T02:20:56;6.82;;;1.95;;
30307;SDS011;17114;52.314;8.910;2022-07-17T02:23:23;6.38;;;2.20;;
30307;SDS011;17114;52.314;8.910;2022-07-17T02:25:50;5.85;;;2.20;;
30307;SDS011;17114;52.314;8.910;2022-07-17T02:28:18;4.78;;;2.20;;
30307;SDS011;17114;52.314;8.910;2022-07-17T02:30:45;4.15;;;2.30;;
30307;SDS011;17114;52.314;8.910;2022-07-17T02:33:13;6.55;;;2.22;;
30307;SDS011;17114;52.314;8.910;2022-07-17T02:35:40;7.32;;;2.10;;
30307;SDS011;17114;52.314;8.910;2022-07-17T02:38:07;6.28;;;2.28;;
30307;SDS011;17114;52.314;8.910;2022-07-17T02:40:34;5.82;;;2.55;;
30307;SDS011;17114;52.314;8.910;2022-07-17T02:43:01;4.15;;;2.10;;
30307;SDS011;17114;52.314;8.910;2022-07-17T02:45:28;3.83;;;1.92;;
30307;SDS011;17114;52.314;8.910;2022-07-17T02:47:56;7.65;;;2.40;;
30307;SDS011;17114;52.314;8.910;2022-07-17T02:50:23;9.63;;;2.90;;
30307;SDS011;17114;52.314;8.910;2022-07-17T02:52:50;2.85;;;2.00;;
30307;SDS011;17114;52.314;8.910;2022-07-17T02:55:17;10.45;;;2.40;;
30307;SDS011;17114;52.314;8.910;2022-07-17T02:57:45;7.95;;;2.30;;
30307;SDS011;17114;52.314;8.910;2022-07-17T03:00:18;6.15;;;2.33;;
30307;SDS011;17114;52.314;8.910;2022-07-17T03:02:46;7.20;;;2.70;;
30307;SDS011;17114;52.314;8.910;2022-07-17T03:05:15;5.85;;;2.30;;
30307;SDS011;17114;52.314;8.910;2022-07-17T03:07:42;6.47;;;2.70;;
30307;SDS011;17114;52.314;8.910;2022-07-17T03:10:13;8.07;;;2.33;;
30307;SDS011;17114;52.314;8.910;2022-07-17T03:12:41;6.10;;;2.63;;
30307;SDS011;17114;52.314;8.910;2022-07-17T03:15:08;4.35;;;2.00;;
30307;SDS011;17114;52.314;8.910;2022-07-17T03:17:38;7.13;;;2.45;;
30307;SDS011;17114;52.314;8.910;2022-07-17T03:20:06;7.07;;;2.20;;
30307;SDS011;17114;52.314;8.910;2022-07-17T03:22:34;6.40;;;2.50;;
30307;SDS011;17114;52.314;8.910;2022-07-17T03:25:02;4.38;;;2.10;;
30307;SDS011;17114;52.314;8.910;2022-07-17T03:27:30;9.48;;;2.30;;
30307;SDS011;17114;52.314;8.910;2022-07-17T03:29:57;6.30;;;2.33;;
30307;SDS011;17114;52.314;8.910;2022-07-17T03:32:24;3.97;;;2.17;;
30307;SDS011;17114;52.314;8.910;2022-07-17T03:34:51;7.25;;;2.40;;
30307;SDS011;17114;52.314;8.910;2022-07-17T03:37:18;5.05;;;2.22;;
30307;SDS011;17114;52.314;8.910;2022-07-17T03:39:45;6.18;;;2.22;;
30307;SDS011;17114;52.314;8.910;2022-07-17T03:42:12;7.80;;;2.40;;
30307;SDS011;17114;52.314;8.910;2022-07-17T03:44:39;6.10;;;2.50;;
30307;SDS011;17114;52.314;8.910;2022-07-17T03:47:06;8.52;;;2.83;;
30307;SDS011;17114;52.314;8.910;2022-07-17T03:49:33;9.18;;;2.65;;
30307;SDS011;17114;52.314;8.910;2022-07-17T03:52:00;5.25;;;2.03;;
30307;SDS011;17114;52.314;8.910;2022-07-17T03:54:27;7.35;;;2.45;;
30307;SDS011;17114;52.314;8.910;2022-07-17T03:56:55;11.57;;;2.83;;
30307;SDS011;17114;52.314;8.910;2022-07-17T03:59:22;4.97;;;2.50;;
30307;SDS011;17114;52.314;8.910;2022-07-17T04:01:49;6.47;;;2.25;;
30307;SDS011;17114;52.314;8.910;2022-07-17T04:04:16;4.78;;;2.33;;
30307;SDS011;17114;52.314;8.910;2022-07-17T04:06:43;7.97;;;2.53;;
30307;SDS011;17114;52.314;8.910;2022-07-17T04:09:10;6.70;;;2.30;;
30307;SDS011;17114;52.314;8.910;2022-07-17T04:11:37;4.57;;;2.28;;
30307;SDS011;17114;52.314;8.910;2022-07-17T04:14:04;6.25;;;2.28;;
30307;SDS011;17114;52.314;8.910;2022-07-17T04:16:31;4.07;;;2.20;;
30307;SDS011;17114;52.314;8.910;2022-07-17T04:18:58;6.88;;;2.42;;
30307;SDS011;17114;52.314;8.910;2022-07-17T04:21:25;6.97;;;2.50;;
30307;SDS011;17114;52.314;8.910;2022-07-17T04:23:53;6.43;;;2.40;;
30307;SDS011;17114;52.314;8.910;2022-07-17T04:26:20;4.05;;;2.38;;
30307;SDS011;17114;52.314;8.910;2022-07-17T04:28:47;5.07;;;2.25;;
30307;SDS011;17114;52.314;8.910;2022-07-17T04:31:14;8.50;;;2.78;;
30307;SDS011;17114;52.314;8.910;2022-07-17T04:33:41;5.40;;;2.40;;
30307;SDS011;17114;52.314;8.910;2022-07-17T04:36:08;9.80;;;2.40;;
30307;SDS011;17114;52.314;8.910;2022-07-17T04:38:35;7.15;;;2.88;;
30307;SDS011;17114;52.314;8.910;2022-07-17T04:41:02;7.90;;;3.20;;
30307;SDS011;17114;52.314;8.910;2022-07-17T04:43:29;6.32;;;2.78;;
30307;SDS011;17114;52.314;8.910;2022-07-17T04:45:56;9.45;;;2.88;;
30307;SDS011;17114;52.314;8.910;2022-07-17T04:48:23;12.73;;;3.10;;
30307;SDS011;17114;52.314;8.910;2022-07-17T04:50:50;5.68;;;2.50;;
30307;SDS011;17114;52.314;8.910;2022-07-17T04:53:18;5.35;;;2.85;;
30307;SDS011;17114;52.314;8.910;2022-07-17T04:55:49;4.10;;;2.42;;
30307;SDS011;17114;52.314;8.910;2022-07-17T04:58:19;7.00;;;2.50;;
30307;SDS011;17114;52.314;8.910;2022-07-17T05:00:47;8.25;;;2.28;;
30307;SDS011;17114;52.314;8.910;2022-07-17T05:03:14;5.95;;;2.10;;
30307;SDS011;17114;52.314;8.910;2022-07-17T05:05:41;5.95;;;2.35;;
30307;SDS011;17114;52.314;8.910;2022-07-17T05:08:08;6.18;;;2.30;;
30307;SDS011;17114;52.314;8.910;2022-07-17T05:10:35;5.45;;;2.28;;
30307;SDS011;17114;52.314;8.910;2022-07-17T05:13:02;6.85;;;2.53;;
30307;SDS011;17114;52.314;8.910;2022-07-17T05:15:30;5.45;;;2.13;;
30307;SDS011;17114;52.314;8.910;2022-07-17T05:18:05;7.97;;;2.10;;
30307;SDS011;17114;52.314;8.910;2022-07-17T05:20:32;6.53;;;2.03;;
30307;SDS011;17114;52.314;8.910;2022-07-17T05:22:59;6.80;;;1.95;;
30307;SDS011;17114;52.314;8.910;2022-07-17T05:25:26;5.97;;;2.00;;
30307;SDS011;17114;52.314;8.910;2022-07-17T05:27:53;11.07;;;2.22;;
30307;SDS011;17114;52.314;8.910;2022-07-17T05:30:20;6.10;;;1.60;;
30307;SDS011;17114;52.314;8.910;2022-07-17T05:32:47;8.68;;;2.22;;
30307;SDS011;17114;52.314;8.910;2022-07-17T05:35:14;7.35;;;1.83;;
30307;SDS011;17114;52.314;8.910;2022-07-17T05:37:41;6.53;;;1.42;;
30307;SDS011;17114;52.314;8.910;2022-07-17T05:40:08;8.80;;;1.70;;
30307;SDS011;17114;52.314;8.910;2022-07-17T05:42:35;6.28;;;2.15;;
30307;SDS011;17114;52.314;8.910;2022-07-17T05:45:03;4.82;;;1.88;;
30307;SDS011;17114;52.314;8.910;2022-07-17T05:47:31;7.85;;;1.70;;
30307;SDS011;17114;52.314;8.910;2022-07-17T05:49:58;8.05;;;1.98;;
30307;SDS011;17114;52.314;8.910;2022-07-17T05:52:25;5.25;;;1.63;;
30307;SDS011;17114;52.314;8.910;2022-07-17T05:54:52;7.18;;;1.80;;
30307;SDS011;17114;52.314;8.910;2022-07-17T05:57:19;6.32;;;1.67;;
30307;SDS011;17114;52.314;8.910;2022-07-17T05:59:46;4.05;;;1.30;;
30307;SDS011;17114;52.314;8.910;2022-07-17T06:02:13;8.63;;;1.85;;
30307;SDS011;17114;52.314;8.910;2022-07-17T06:04:40;6.97;;;1.92;;
30307;SDS011;17114;52.314;8.910;2022-07-17T06:07:07;7.43;;;2.00;;
30307;SDS011;17114;52.314;8.910;2022-07-17T06:09:34;8.63;;;2.03;;
30307;SDS011;17114;52.314;8.910;2022-07-17T06:12:01;6.25;;;1.83;;
30307;SDS011;17114;52.314;8.910;2022-07-17T06:14:28;11.25;;;2.33;;
30307;SDS011;17114;52.314;8.910;2022-07-17T06:16:55;7.75;;;1.75;;
30307;SDS011;17114;52.314;8.910;2022-07-17T06:19:22;6.78;;;1.73;;
30307;SDS011;17114;52.314;8.910;2022-07-17T06:21:49;9.77;;;1.50;;
30307;SDS011;17114;52.314;8.910;2022-07-17T06:24:16;12.10;;;2.15;;
30307;SDS011;17114;52.314;8.910;2022-07-17T06:26:43;7.88;;;2.08;;
30307;SDS011;17114;52.314;8.910;2022-07-17T06:29:10;6.15;;;1.45;;
30307;SDS011;17114;52.314;8.910;2022-07-17T06:31:37;10.15;;;2.38;;
30307;SDS011;17114;52.314;8.910;2022-07-17T06:34:04;7.88;;;1.70;;
30307;SDS011;17114;52.314;8.910;2022-07-17T06:36:31;10.05;;;2.03;;
30307;SDS011;17114;52.314;8.910;2022-07-17T06:38:58;6.70;;;1.52;;
30307;SDS011;17114;52.314;8.910;2022-07-17T06:41:25;5.43;;;1.38;;
30307;SDS011;17114;52.314;8.910;2022-07-17T06:43:52;7.97;;;1.70;;
30307;SDS011;17114;52.314;8.910;2022-07-17T06:46:19;8.48;;;1.90;;
30307;SDS011;17114;52.314;8.910;2022-07-17T06:48:47;9.40;;;1.77;;
30307;SDS011;17114;52.314;8.910;2022-07-17T06:51:17;8.85;;;1.42;;
30307;SDS011;17114;52.314;8.910;2022-07-17T06:53:45;11.07;;;1.77;;
30307;SDS011;17114;52.314;8.910;2022-07-17T06:56:12;9.30;;;1.73;;
30307;SDS011;17114;52.314;8.910;2022-07-17T06:58:39;8.35;;;1.40;;
30307;SDS011;17114;52.314;8.910;2022-07-17T07:01:06;5.72;;;1.83;;
30307;SDS011;17114;52.314;8.910;2022-07-17T07:03:34;7.75;;;1.40;;
30307;SDS011;17114;52.314;8.910;2022-07-17T07:06:01;13.32;;;1.60;;
30307;SDS011;17114;52.314;8.910;2022-07-17T07:08:28;7.47;;;1.70;;
30307;SDS011;17114;52.314;8.910;2022-07-17T07:10:55;6.32;;;1.92;;
30307;SDS011;17114;52.314;8.910;2022-07-17T07:13:22;7.15;;;1.45;;
30307;SDS011;17114;52.314;8.910;2022-07-17T07:15:50;6.78;;;1.80;;
30307;SDS011;17114;52.314;8.910;2022-07-17T07:18:17;7.10;;;1.60;;
30307;SDS011;17114;52.314;8.910;2022-07-17T07:20:44;5.60;;;1.30;;
30307;SDS011;17114;52.314;8.910;2022-07-17T07:23:11;5.47;;;1.25;;
30307;SDS011;17114;52.314;8.910;2022-07-17T07:25:38;5.13;;;1.70;;
30307;SDS011;17114;52.314;8.910;2022-07-17T07:28:05;5.80;;;1.42;;
30307;SDS011;17114;52.314;8.910;2022-07-17T07:30:33;3.15;;;1.17;;
30307;SDS011;17114;52.314;8.910;2022-07-17T07:33:00;5.93;;;1.70;;
30307;SDS011;17114;52.314;8.910;2022-07-17T07:35:27;6.65;;;1.40;;
30307;SDS011;17114;52.314;8.910;2022-07-17T07:37:54;7.75;;;1.52;;
30307;SDS011;17114;52.314;8.910;2022-07-17T07:40:21;7.47;;;1.40;;
30307;SDS011;17114;52.314;8.910;2022-07-17T07:42:49;6.90;;;1.63;;
30307;SDS011;17114;52.314;8.910;2022-07-17T07:45:16;6.03;;;1.35;;
30307;SDS011;17114;52.314;8.910;2022-07-17T07:47:44;4.50;;;1.20;;
30307;SDS011;17114;52.314;8.910;2022-07-17T07:50:12;4.20;;;1.48;;
30307;SDS011;17114;52.314;8.910;2022-07-17T07:52:40;4.03;;;1.27;;
30307;SDS011;17114;52.314;8.910;2022-07-17T07:55:09;7.97;;;1.50;;
30307;SDS011;17114;52.314;8.910;2022-07-17T07:57:45;10.23;;;1.60;;
30307;SDS011;17114;52.314;8.910;2022-07-17T08:00:13;8.27;;;2.00;;
30307;SDS011;17114;52.314;8.910;2022-07-17T08:02:41;2.90;;;1.27;;
30307;SDS011;17114;52.314;8.910;2022-07-17T08:05:08;5.97;;;1.30;;
30307;SDS011;17114;52.314;8.910;2022-07-17T08:07:36;4.82;;;1.30;;
30307;SDS011;17114;52.314;8.910;2022-07-17T08:10:04;7.07;;;1.58;;
30307;SDS011;17114;52.314;8.910;2022-07-17T08:12:31;6.30;;;1.55;;
30307;SDS011;17114;52.314;8.910;2022-07-17T08:15:17;4.88;;;1.10;;
30307;SDS011;17114;52.314;8.910;2022-07-17T08:17:46;4.68;;;1.23;;
30307;SDS011;17114;52.314;8.910;2022-07-17T08:20:14;3.75;;;1.10;;
30307;SDS011;17114;52.314;8.910;2022-07-17T08:22:42;6.57;;;1.40;;
30307;SDS011;17114;52.314;8.910;2022-07-17T08:25:30;6.18;;;1.50;;
30307;SDS011;17114;52.314;8.910;2022-07-17T08:27:57;5.25;;;1.50;;
30307;SDS011;17114;52.314;8.910;2022-07-17T08:30:25;5.57;;;1.92;;
30307;SDS011;17114;52.314;8.910;2022-07-17T08:32:52;5.82;;;1.40;;
30307;SDS011;17114;52.314;8.910;2022-07-17T08:35:19;6.72;;;1.30;;
30307;SDS011;17114;52.314;8.910;2022-07-17T08:37:48;3.03;;;1.17;;
30307;SDS011;17114;52.314;8.910;2022-07-17T08:40:19;2.67;;;1.00;;
30307;SDS011;17114;52.314;8.910;2022-07-17T08:42:49;4.90;;;1.27;;
30307;SDS011;17114;52.314;8.910;2022-07-17T08:45:16;3.47;;;1.20;;
30307;SDS011;17114;52.314;8.910;2022-07-17T08:47:44;11.70;;;1.65;;
30307;SDS011;17114;52.314;8.910;2022-07-17T08:50:12;4.97;;;1.30;;
30307;SDS011;17114;52.314;8.910;2022-07-17T08:52:40;5.35;;;1.25;;
30307;SDS011;17114;52.314;8.910;2022-07-17T08:55:11;4.53;;;1.52;;
30307;SDS011;17114;52.314;8.910;2022-07-17T08:57:41;6.35;;;1.50;;
30307;SDS011;17114;52.314;8.910;2022-07-17T09:00:13;6.22;;;1.45;;
30307;SDS011;17114;52.314;8.910;2022-07-17T09:02:55;5.50;;;1.35;;
30307;SDS011;17114;52.314;8.910;2022-07-17T09:05:27;4.55;;;1.50;;
30307;SDS011;17114;52.314;8.910;2022-07-17T09:07:59;5.93;;;1.35;;
30307;SDS011;17114;52.314;8.910;2022-07-17T09:10:45;5.88;;;1.67;;
30307;SDS011;17114;52.314;8.910;2022-07-17T09:15:43;4.65;;;1.23;;
30307;SDS011;17114;52.314;8.910;2022-07-17T09:18:11;5.50;;;1.48;;
30307;SDS011;17114;52.314;8.910;2022-07-17T09:23:32;2.85;;;1.23;;
30307;SDS011;17114;52.314;8.910;2022-07-17T09:26:01;7.25;;;1.52;;
30307;SDS011;17114;52.314;8.910;2022-07-17T09:28:31;6.53;;;1.75;;
30307;SDS011;17114;52.314;8.910;2022-07-17T09:30:58;6.63;;;1.50;;
30307;SDS011;17114;52.314;8.910;2022-07-17T09:33:26;5.15;;;1.20;;
30307;SDS011;17114;52.314;8.910;2022-07-17T09:35:55;6.50;;;1.40;;
30307;SDS011;17114;52.314;8.910;2022-07-17T09:38:33;5.15;;;1.42;;
30307;SDS011;17114;52.314;8.910;2022-07-17T09:43:40;4.65;;;1.30;;
30307;SDS011;17114;52.314;8.910;2022-07-17T09:46:25;4.38;;;1.30;;
30307;SDS011;17114;52.314;8.910;2022-07-17T09:49:02;5.38;;;1.33;;
30307;SDS011;17114;52.314;8.910;2022-07-17T09:51:34;4.47;;;1.30;;
30307;SDS011;17114;52.314;8.910;2022-07-17T09:54:06;6.80;;;1.30;;
30307;SDS011;17114;52.314;8.910;2022-07-17T09:56:35;4.50;;;1.48;;
30307;SDS011;17114;52.314;8.910;2022-07-17T09:59:06;5.22;;;1.42;;
30307;SDS011;17114;52.314;8.910;2022-07-17T10:01:41;6.00;;;1.63;;
30307;SDS011;17114;52.314;8.910;2022-07-17T10:04:11;4.57;;;1.40;;
30307;SDS011;17114;52.314;8.910;2022-07-17T10:06:38;4.28;;;1.40;;
30307;SDS011;17114;52.314;8.910;2022-07-17T10:09:05;4.90;;;1.30;;
30307;SDS011;17114;52.314;8.910;2022-07-17T10:11:34;3.92;;;1.20;;
30307;SDS011;17114;52.314;8.910;2022-07-17T10:14:12;6.63;;;1.40;;
30307;SDS011;17114;52.314;8.910;2022-07-17T10:16:40;4.85;;;1.20;;
30307;SDS011;17114;52.314;8.910;2022-07-17T10:19:21;4.80;;;1.80;;
30307;SDS011;17114;52.314;8.910;2022-07-17T10:21:56;5.07;;;1.50;;
30307;SDS011;17114;52.314;8.910;2022-07-17T10:24:25;3.65;;;1.30;;
30307;SDS011;17114;52.314;8.910;2022-07-17T10:26:53;2.78;;;1.08;;
30307;SDS011;17114;52.314;8.910;2022-07-17T10:32:06;6.03;;;1.42;;
30307;SDS011;17114;52.314;8.910;2022-07-17T10:37:16;6.90;;;1.30;;
30307;SDS011;17114;52.314;8.910;2022-07-17T10:39:51;5.38;;;1.60;;
30307;SDS011;17114;52.314;8.910;2022-07-17T10:45:06;8.45;;;1.70;;
30307;SDS011;17114;52.314;8.910;2022-07-17T10:47:48;3.40;;;1.27;;
30307;SDS011;17114;52.314;8.910;2022-07-17T10:53:12;7.05;;;1.75;;
30307;SDS011;17114;52.314;8.910;2022-07-17T10:58:25;4.05;;;1.30;;
30307;SDS011;17114;52.314;8.910;2022-07-17T11:01:07;9.07;;;1.50;;
30307;SDS011;17114;52.314;8.910;2022-07-17T11:03:43;7.47;;;1.42;;
30307;SDS011;17114;52.314;8.910;2022-07-17T11:06:31;4.13;;;1.40;;
30307;SDS011;17114;52.314;8.910;2022-07-17T11:11:44;4.22;;;1.20;;
30307;SDS011;17114;52.314;8.910;2022-07-17T11:16:46;3.40;;;1.40;;
30307;SDS011;17114;52.314;8.910;2022-07-17T11:21:54;3.47;;;1.33;;
30307;SDS011;17114;52.314;8.910;2022-07-17T11:24:23;3.35;;;1.38;;
30307;SDS011;17114;52.314;8.910;2022-07-17T11:26:52;2.08;;;0.95;;
30307;SDS011;17114;52.314;8.910;2022-07-17T11:29:20;4.10;;;1.30;;
30307;SDS011;17114;52.314;8.910;2022-07-17T11:31:46;3.30;;;1.17;;
30307;SDS011;17114;52.314;8.910;2022-07-17T11:34:24;4.55;;;1.30;;
30307;SDS011;17114;52.314;8.910;2022-07-17T11:37:01;3.67;;;1.45;;
30307;SDS011;17114;52.314;8.910;2022-07-17T11:42:11;6.22;;;1.15;;
30307;SDS011;17114;52.314;8.910;2022-07-17T11:44:40;2.85;;;1.13;;
30307;SDS011;17114;52.314;8.910;2022-07-17T11:47:10;5.50;;;1.73;;
30307;SDS011;17114;52.314;8.910;2022-07-17T11:49:38;3.03;;;1.25;;
30307;SDS011;17114;52.314;8.910;2022-07-17T11:52:14;5.30;;;1.25;;
30307;SDS011;17114;52.314;8.910;2022-07-17T11:54:48;3.72;;;1.30;;
30307;SDS011;17114;52.314;8.910;2022-07-17T11:57:17;4.88;;;1.50;;
30307;SDS011;17114;52.314;8.910;2022-07-17T11:59:45;4.68;;;1.17;;
30307;SDS011;17114;52.314;8.910;2022-07-17T12:02:13;3.63;;;1.42;;
30307;SDS011;17114;52.314;8.910;2022-07-17T12:05:24;2.35;;;1.02;;
30307;SDS011;17114;52.314;8.910;2022-07-17T12:07:47;6.57;;;1.40;;
30307;SDS011;17114;52.314;8.910;2022-07-17T12:10:18;2.47;;;1.10;;
30307;SDS011;17114;52.314;8.910;2022-07-17T12:13:00;5.18;;;1.30;;
30307;SDS011;17114;52.314;8.910;2022-07-17T12:15:41;4.07;;;1.35;;
30307;SDS011;17114;52.314;8.910;2022-07-17T12:18:28;3.17;;;1.35;;
30307;SDS011;17114;52.314;8.910;2022-07-17T12:20:57;5.22;;;1.52;;
30307;SDS011;17114;52.314;8.910;2022-07-17T12:23:38;4.82;;;1.27;;
30307;SDS011;17114;52.314;8.910;2022-07-17T12:28:44;4.47;;;1.30;;
30307;SDS011;17114;52.314;8.910;2022-07-17T12:31:11;4.10;;;1.52;;
30307;SDS011;17114;52.314;8.910;2022-07-17T12:33:40;3.42;;;1.20;;
30307;SDS011;17114;52.314;8.910;2022-07-17T12:36:08;3.67;;;1.20;;
30307;SDS011;17114;52.314;8.910;2022-07-17T12:38:36;3.00;;;1.08;;
30307;SDS011;17114;52.314;8.910;2022-07-17T12:41:02;4.25;;;1.45;;
30307;SDS011;17114;52.314;8.910;2022-07-17T12:43:31;3.25;;;1.45;;
30307;SDS011;17114;52.314;8.910;2022-07-17T12:45:58;2.15;;;1.10;;
30307;SDS011;17114;52.314;8.910;2022-07-17T12:48:34;2.80;;;1.05;;
30307;SDS011;17114;52.314;8.910;2022-07-17T12:51:02;7.10;;;1.30;;
30307;SDS011;17114;52.314;8.910;2022-07-17T12:53:29;3.70;;;1.20;;
30307;SDS011;17114;52.314;8.910;2022-07-17T12:55:56;4.82;;;1.30;;
30307;SDS011;17114;52.314;8.910;2022-07-17T12:58:23;3.80;;;1.00;;
30307;SDS011;17114;52.314;8.910;2022-07-17T13:00:50;3.53;;;1.00;;
30307;SDS011;17114;52.314;8.910;2022-07-17T13:03:17;3.78;;;1.10;;
30307;SDS011;17114;52.314;8.910;2022-07-17T13:05:44;4.15;;;1.20;;
30307;SDS011;17114;52.314;8.910;2022-07-17T13:08:11;3.38;;;1.13;;
30307;SDS011;17114;52.314;8.910;2022-07-17T13:10:38;2.50;;;1.08;;
30307;SDS011;17114;52.314;8.910;2022-07-17T13:13:05;5.05;;;1.33;;
30307;SDS011;17114;52.314;8.910;2022-07-17T13:15:32;3.72;;;1.00;;
30307;SDS011;17114;52.314;8.910;2022-07-17T13:17:59;4.70;;;1.48;;
30307;SDS011;17114;52.314;8.910;2022-07-17T13:20:27;5.80;;;1.10;;
30307;SDS011;17114;52.314;8.910;2022-07-17T13:22:55;3.72;;;1.02;;
30307;SDS011;17114;52.314;8.910;2022-07-17T13:25:23;3.78;;;1.10;;
30307;SDS011;17114;52.314;8.910;2022-07-17T13:27:50;3.05;;;1.20;;
30307;SDS011;17114;52.314;8.910;2022-07-17T13:30:16;5.20;;;1.15;;
30307;SDS011;17114;52.314;8.910;2022-07-17T13:32:43;3.80;;;1.20;;
30307;SDS011;17114;52.314;8.910;2022-07-17T13:35:10;4.88;;;1.05;;
30307;SDS011;17114;52.314;8.910;2022-07-17T13:37:37;2.22;;;1.00;;
30307;SDS011;17114;52.314;8.910;2022-07-17T13:40:05;5.30;;;1.40;;
30307;SDS011;17114;52.314;8.910;2022-07-17T13:42:33;3.78;;;1.30;;
30307;SDS011;17114;52.314;8.910;2022-07-17T13:45:00;3.78;;;1.35;;
30307;SDS011;17114;52.314;8.910;2022-07-17T13:47:27;2.88;;;1.30;;
30307;SDS011;17114;52.314;8.910;2022-07-17T13:49:55;4.53;;;1.30;;
30307;SDS011;17114;52.314;8.910;2022-07-17T13:52:22;5.18;;;1.45;;
30307;SDS011;17114;52.314;8.910;2022-07-17T13:54:49;4.85;;;1.20;;
30307;SDS011;17114;52.314;8.910;2022-07-17T13:57:16;3.55;;;1.60;;
30307;SDS011;17114;52.314;8.910;2022-07-17T13:59:43;3.95;;;1.20;;
30307;SDS011;17114;52.314;8.910;2022-07-17T14:02:10;4.53;;;1.30;;
30307;SDS011;17114;52.314;8.910;2022-07-17T14:04:37;3.28;;;1.10;;
30307;SDS011;17114;52.314;8.910;2022-07-17T14:07:04;4.57;;;1.10;;
30307;SDS011;17114;52.314;8.910;2022-07-17T14:09:31;4.88;;;1.17;;
30307;SDS011;17114;52.314;8.910;2022-07-17T14:11:59;2.00;;;1.10;;
30307;SDS011;17114;52.314;8.910;2022-07-17T14:14:26;1.98;;;0.95;;
30307;SDS011;17114;52.314;8.910;2022-07-17T14:16:53;2.35;;;1.20;;
30307;SDS011;17114;52.314;8.910;2022-07-17T14:19:20;4.60;;;1.42;;
30307;SDS011;17114;52.314;8.910;2022-07-17T14:21:47;4.75;;;1.15;;
30307;SDS011;17114;52.314;8.910;2022-07-17T14:24:14;3.50;;;1.15;;
30307;SDS011;17114;52.314;8.910;2022-07-17T14:26:41;4.35;;;1.30;;
30307;SDS011;17114;52.314;8.910;2022-07-17T14:29:14;6.55;;;1.55;;
30307;SDS011;17114;52.314;8.910;2022-07-17T14:31:41;4.40;;;1.67;;
30307;SDS011;17114;52.314;8.910;2022-07-17T14:34:10;3.83;;;1.17;;
30307;SDS011;17114;52.314;8.910;2022-07-17T14:36:39;3.83;;;0.98;;
30307;SDS011;17114;52.314;8.910;2022-07-17T14:39:06;4.05;;;1.20;;
30307;SDS011;17114;52.314;8.910;2022-07-17T14:41:33;3.10;;;1.30;;
30307;SDS011;17114;52.314;8.910;2022-07-17T14:44:00;5.40;;;1.40;;
30307;SDS011;17114;52.314;8.910;2022-07-17T14:46:27;4.72;;;1.27;;
30307;SDS011;17114;52.314;8.910;2022-07-17T14:48:54;2.40;;;1.30;;
30307;SDS011;17114;52.314;8.910;2022-07-17T14:51:21;3.88;;;1.15;;
30307;SDS011;17114;52.314;8.910;2022-07-17T14:53:48;1.92;;;1.05;;
30307;SDS011;17114;52.314;8.910;2022-07-17T14:56:16;5.97;;;1.13;;
30307;SDS011;17114;52.314;8.910;2022-07-17T14:58:45;2.70;;;1.10;;
30307;SDS011;17114;52.314;8.910;2022-07-17T15:01:12;2.70;;;1.23;;
30307;SDS011;17114;52.314;8.910;2022-07-17T15:03:39;2.63;;;1.13;;
30307;SDS011;17114;52.314;8.910;2022-07-17T15:06:06;5.78;;;1.38;;
30307;SDS011;17114;52.314;8.910;2022-07-17T15:08:33;4.05;;;1.20;;
30307;SDS011;17114;52.314;8.910;2022-07-17T15:11:00;4.13;;;1.30;;
30307;SDS011;17114;52.314;8.910;2022-07-17T15:13:27;4.70;;;1.10;;
30307;SDS011;17114;52.314;8.910;2022-07-17T15:15:54;2.38;;;1.10;;
30307;SDS011;17114;52.314;8.910;2022-07-17T15:18:21;3.22;;;1.30;;
30307;SDS011;17114;52.314;8.910;2022-07-17T15:20:49;2.28;;;1.20;;
30307;SDS011;17114;52.314;8.910;2022-07-17T15:23:16;3.95;;;1.33;;
30307;SDS011;17114;52.314;8.910;2022-07-17T15:25:42;3.05;;;1.20;;
30307;SDS011;17114;52.314;8.910;2022-07-17T15:28:09;6.25;;;1.45;;
30307;SDS011;17114;52.314;8.910;2022-07-17T15:30:36;4.18;;;1.35;;